• Join FlightAware (Why Join?)
  • Login
  • US Flag 
02:54PM EDT


 

Airport Tracker/Info


-or-


 

Live Flight TrackerFlight Track Log ✈ PDT4314 ✈ 22-Oct-2013 ✈ KPHL - KBGM

Flight Track Log - Related Links

Times and Time Zones

All times are in EDT time to prevent confusion due to time zone crossing. See the PDT4314 flight status page for this flight to view local times or setup timezone preferences in your user account.

Time Position Orientation Groundspeed Altitude Reporting Facility
EDT Latitude Longitude Course Direction KTS MPH feet Rate Location/Type
04:30PM 39.9000 -75.2333 293° West 125 144 400  Level Philadelphia TRACON
04:31PM 39.9000 -75.2500 270° West 124 143 1,200 1,380 Climbing Philadelphia TRACON
04:32PM 39.9167 -75.3000 294° West 142 163 2,400 1,080 Climbing Philadelphia TRACON
04:33PM 40.0700 -75.3014 323° Northwest  Level Estimated
04:33PM 39.9333 -75.3500 294° West 131 151 3,400  Level Philadelphia TRACON
04:34PM 40.1359 -75.3216 311° West  Level Estimated
04:34PM 39.9500 -75.3833 303° West 135 155 4,600  Level Philadelphia TRACON
04:35PM 40.2018 -75.3419 311° West  Level Estimated
04:35PM 39.9500 -75.4333 270° West 125 144 5,700  Level Philadelphia TRACON
04:36PM 40.2281 -75.4236 293° West  Level FlightAware Approximate
04:36PM 39.9667 -75.4833 294° West 137 158 6,600  Level Philadelphia TRACON
04:37PM 39.9833 -75.5167 303° West 135 155 7,700 1,080 Climbing Philadelphia TRACON
04:38PM 40.0000 -75.5667 294° West 133 153 8,800 600 Climbing Philadelphia TRACON
04:39PM 40.0333 -75.5833 339° North 215 247 9,000 60 Climbing Philadelphia TRACON
04:40PM 40.1000 -75.5667 11° North 251 289 9,000  Level Philadelphia TRACON
04:41PM 40.1694 -75.5328 20° North 280 322 9,000 480 Level New York Center
04:42PM 40.2286 -75.5639 338° Northwest 220 253 10,100 900 Climbing New York Center
04:43PM 40.2519 -75.6064 306° West 169 194 10,900 780 Climbing New York Center
04:44PM 40.2836 -75.6494 314° West 151 174 11,700 780 Climbing New York Center
04:45PM 40.3092 -75.6867 312° West 151 174 12,500 720 Climbing New York Center
04:46PM 40.3344 -75.7292 308° West 151 174 13,200 720 Climbing New York Center
04:47PM 40.3636 -75.7775 308° West 151 174 14,000 360 Climbing New York Center
04:48PM 40.3950 -75.8261 310° West 165 190 14,000  Level New York Center
04:49PM 40.4322 -75.8781 313° West 179 206 14,000  Level New York Center
04:50PM 40.4694 -75.9353 311° West 196 226 14,000  Level New York Center
04:51PM 40.5136 -75.9714 328° Northwest 209 241 14,000  Level New York Center
04:52PM 40.5856 -75.9961 345° North 230 265 14,000  Level New York Center
04:53PM 40.6536 -76.0150 348° North 239 275 14,000  Level New York Center
04:54PM 40.7169 -76.0417 342° North 239 275 14,000  Level New York Center
04:55PM 40.7744 -76.0597 347° North 234 269 14,000  Level New York Center
04:56PM 40.8483 -76.0819 347° North 242 278 14,000  Level New York Center
04:57PM 40.9122 -76.1033 346° North 237 273 14,000  Level New York Center
04:58PM 40.9778 -76.1278 344° North 237 273 14,000  Level New York Center
04:59PM 41.0417 -76.1439 349° North 237 273 14,000  Level New York Center
05:00PM 41.1028 -76.1708 342° North 232 267 14,000  Level New York Center
05:01PM 41.1667 -76.1897 347° North 232 267 14,000  Level New York Center
05:02PM 41.2219 -76.2050 348° North 232 267 14,000  Level New York Center
05:03PM 41.2867 -76.2047 360° North 232 267 14,000  Level New York Center
05:04PM 41.3622 -76.1914 North 237 273 14,000  Level New York Center
05:05PM 41.4289 -76.1942 358° North 237 273 14,000  Level New York Center
05:06PM 41.4956 -76.1939 360° North 237 273 14,000  Level New York Center
05:07PM 41.5542 -76.1875 North 237 273 14,000  Level New York Center
05:08PM 41.6231 -76.1794 North 237 273 14,000 -300 Level New York Center
05:09PM 41.6986 -76.1717 North 237 273 13,500 -960 Descending New York Center
05:10PM 41.7692 -76.1717 360° North 244 281 12,100 -1,500 Descending New York Center
05:11PM 41.8381 -76.1689 North 244 281 10,500 -1,500 Descending New York Center
05:12PM 41.8989 -76.1628 North 244 281 9,100 -1,080 Descending New York Center
05:13PM 41.9569 -76.1172 30° Northeast 233 268 8,400 -1,200 Descending New York Center
05:14PM 42.0178 -76.0636 33° Northeast 240 276 6,700 -1,680 Descending New York Center
05:15PM 42.0722 -76.0092 37° Northeast 240 276 5,100 -1,440 Descending New York Center
05:16PM 42.1222 -75.9628 35° Northeast 233 268 3,900 -1,140 Descending New York Center
05:17PM 42.1631 -75.9325 29° Northeast 197 227 2,900 -780 Descending New York Center
05:18PM 42.2003 -75.9383 353° North 151 174 2,400 -360 Descending New York Center
05:19PM 42.2250 -75.9403 357° North 122 140 2,200 -240 Descending New York Center